San Nicolas de los Arroyos, Argentina
Current Conditions -  °F | °C
As of 5:00 PM on Friday 24 Oct 2014 (Local Time) from SAAR Reporting Station
Clear Clear  
Wind Chill: 86°   Ceiling: Unl
Heat Index: 86°   Visibility: 6mi
Dew Point: 54°   Wind: 8mph
Humidity: 33%   Direction: 70°ENE
Pressure: 29.88"   Gusts: NA
Location:  33.33°S, 60.22°W
Report Text: SAAR 242000Z 07007KT CAVOK 30/12 Q1012
Loading
Personal Weather Stations






























Interactive Weather Map
Tropical Storm Tracking
New forecast layout! Learn more

10-Day Weather Forecast

Advertisements
Track Severe Weather on mobile